sensor_id;sensor_type;location;lat;lon;timestamp;P1;durP1;ratioP1;P2;durP2;ratioP2
67571;SDS011;54397;47.506;19.158;2022-07-06T00:03:11;5.55;;;3.95;;
67571;SDS011;54397;47.506;19.158;2022-07-06T00:06:32;5.95;;;3.90;;
67571;SDS011;54397;47.506;19.158;2022-07-06T00:09:54;7.25;;;3.67;;
67571;SDS011;54397;47.506;19.158;2022-07-06T00:13:16;6.30;;;3.17;;
67571;SDS011;54397;47.506;19.158;2022-07-06T00:16:37;4.90;;;3.63;;
67571;SDS011;54397;47.506;19.158;2022-07-06T00:20:02;5.60;;;3.45;;
67571;SDS011;54397;47.506;19.158;2022-07-06T00:23:24;3.15;;;2.90;;
67571;SDS011;54397;47.506;19.158;2022-07-06T00:26:48;5.93;;;3.42;;
67571;SDS011;54397;47.506;19.158;2022-07-06T00:30:09;11.10;;;8.38;;
67571;SDS011;54397;47.506;19.158;2022-07-06T00:33:34;5.82;;;3.83;;
67571;SDS011;54397;47.506;19.158;2022-07-06T00:36:55;4.72;;;2.92;;
67571;SDS011;54397;47.506;19.158;2022-07-06T00:40:20;5.70;;;3.40;;
67571;SDS011;54397;47.506;19.158;2022-07-06T00:43:54;4.95;;;3.22;;
67571;SDS011;54397;47.506;19.158;2022-07-06T00:47:17;4.70;;;3.08;;
67571;SDS011;54397;47.506;19.158;2022-07-06T00:50:39;7.18;;;3.20;;
67571;SDS011;54397;47.506;19.158;2022-07-06T00:54:02;3.75;;;2.83;;
67571;SDS011;54397;47.506;19.158;2022-07-06T00:57:24;3.95;;;2.83;;
67571;SDS011;54397;47.506;19.158;2022-07-06T01:00:46;4.70;;;3.20;;
67571;SDS011;54397;47.506;19.158;2022-07-06T01:04:13;3.53;;;3.05;;
67571;SDS011;54397;47.506;19.158;2022-07-06T01:07:38;3.40;;;2.92;;
67571;SDS011;54397;47.506;19.158;2022-07-06T01:11:01;4.93;;;2.70;;
67571;SDS011;54397;47.506;19.158;2022-07-06T01:14:23;3.72;;;3.17;;
67571;SDS011;54397;47.506;19.158;2022-07-06T01:17:48;5.20;;;2.90;;
67571;SDS011;54397;47.506;19.158;2022-07-06T01:21:11;3.72;;;2.58;;
67571;SDS011;54397;47.506;19.158;2022-07-06T01:24:36;6.95;;;3.08;;
67571;SDS011;54397;47.506;19.158;2022-07-06T01:28:01;4.53;;;3.05;;
67571;SDS011;54397;47.506;19.158;2022-07-06T01:31:25;3.22;;;2.75;;
67571;SDS011;54397;47.506;19.158;2022-07-06T01:34:48;7.05;;;3.38;;
67571;SDS011;54397;47.506;19.158;2022-07-06T01:38:09;4.30;;;2.75;;
67571;SDS011;54397;47.506;19.158;2022-07-06T01:41:33;4.03;;;3.00;;
67571;SDS011;54397;47.506;19.158;2022-07-06T01:44:57;3.25;;;2.92;;
67571;SDS011;54397;47.506;19.158;2022-07-06T01:48:19;4.47;;;2.90;;
67571;SDS011;54397;47.506;19.158;2022-07-06T01:51:43;3.40;;;2.97;;
67571;SDS011;54397;47.506;19.158;2022-07-06T01:55:05;3.45;;;2.80;;
67571;SDS011;54397;47.506;19.158;2022-07-06T01:58:27;6.55;;;2.95;;
67571;SDS011;54397;47.506;19.158;2022-07-06T02:01:53;3.38;;;2.75;;
67571;SDS011;54397;47.506;19.158;2022-07-06T02:05:17;4.43;;;2.70;;
67571;SDS011;54397;47.506;19.158;2022-07-06T02:08:39;3.40;;;2.90;;
67571;SDS011;54397;47.506;19.158;2022-07-06T02:12:01;3.67;;;2.90;;
67571;SDS011;54397;47.506;19.158;2022-07-06T02:15:24;4.15;;;3.05;;
67571;SDS011;54397;47.506;19.158;2022-07-06T02:18:46;4.07;;;2.80;;
67571;SDS011;54397;47.506;19.158;2022-07-06T02:22:10;3.92;;;2.95;;
67571;SDS011;54397;47.506;19.158;2022-07-06T02:25:32;4.88;;;2.50;;
67571;SDS011;54397;47.506;19.158;2022-07-06T02:28:53;3.50;;;2.60;;
67571;SDS011;54397;47.506;19.158;2022-07-06T02:32:15;2.92;;;2.72;;
67571;SDS011;54397;47.506;19.158;2022-07-06T02:35:36;5.03;;;2.92;;
67571;SDS011;54397;47.506;19.158;2022-07-06T02:39:06;4.73;;;3.47;;
67571;SDS011;54397;47.506;19.158;2022-07-06T02:42:27;4.63;;;3.03;;
67571;SDS011;54397;47.506;19.158;2022-07-06T02:45:51;5.30;;;2.78;;
67571;SDS011;54397;47.506;19.158;2022-07-06T02:49:15;3.90;;;3.10;;
67571;SDS011;54397;47.506;19.158;2022-07-06T02:52:39;3.88;;;3.00;;
67571;SDS011;54397;47.506;19.158;2022-07-06T02:56:03;5.15;;;3.03;;
67571;SDS011;54397;47.506;19.158;2022-07-06T02:59:27;5.25;;;3.30;;
67571;SDS011;54397;47.506;19.158;2022-07-06T03:02:51;5.60;;;3.25;;
67571;SDS011;54397;47.506;19.158;2022-07-06T03:06:15;3.97;;;3.35;;
67571;SDS011;54397;47.506;19.158;2022-07-06T03:09:37;3.72;;;3.05;;
67571;SDS011;54397;47.506;19.158;2022-07-06T03:12:58;3.40;;;3.00;;
67571;SDS011;54397;47.506;19.158;2022-07-06T03:16:20;4.25;;;3.20;;
67571;SDS011;54397;47.506;19.158;2022-07-06T03:19:44;4.43;;;3.50;;
67571;SDS011;54397;47.506;19.158;2022-07-06T03:23:08;6.40;;;3.65;;
67571;SDS011;54397;47.506;19.158;2022-07-06T03:26:32;4.22;;;3.33;;
67571;SDS011;54397;47.506;19.158;2022-07-06T03:29:57;5.13;;;3.60;;
67571;SDS011;54397;47.506;19.158;2022-07-06T03:33:19;4.25;;;3.35;;
67571;SDS011;54397;47.506;19.158;2022-07-06T03:36:41;4.45;;;3.63;;
67571;SDS011;54397;47.506;19.158;2022-07-06T03:40:07;5.38;;;3.90;;
67571;SDS011;54397;47.506;19.158;2022-07-06T03:43:31;6.90;;;3.97;;
67571;SDS011;54397;47.506;19.158;2022-07-06T03:46:53;4.07;;;3.42;;
67571;SDS011;54397;47.506;19.158;2022-07-06T03:50:16;4.50;;;3.33;;
67571;SDS011;54397;47.506;19.158;2022-07-06T03:53:38;5.72;;;3.45;;
67571;SDS011;54397;47.506;19.158;2022-07-06T03:57:00;6.70;;;3.75;;
67571;SDS011;54397;47.506;19.158;2022-07-06T04:00:21;6.88;;;3.35;;
67571;SDS011;54397;47.506;19.158;2022-07-06T04:03:43;5.05;;;3.47;;
67571;SDS011;54397;47.506;19.158;2022-07-06T04:07:07;5.55;;;3.65;;
67571;SDS011;54397;47.506;19.158;2022-07-06T04:10:34;4.00;;;3.50;;
67571;SDS011;54397;47.506;19.158;2022-07-06T04:13:55;6.03;;;4.15;;
67571;SDS011;54397;47.506;19.158;2022-07-06T04:17:22;6.25;;;3.28;;
67571;SDS011;54397;47.506;19.158;2022-07-06T04:21:02;6.43;;;4.00;;
67571;SDS011;54397;47.506;19.158;2022-07-06T04:24:24;4.05;;;3.58;;
67571;SDS011;54397;47.506;19.158;2022-07-06T04:27:46;5.35;;;3.85;;
67571;SDS011;54397;47.506;19.158;2022-07-06T04:31:08;4.47;;;3.40;;
67571;SDS011;54397;47.506;19.158;2022-07-06T04:34:32;4.00;;;3.60;;
67571;SDS011;54397;47.506;19.158;2022-07-06T04:37:53;3.60;;;3.30;;
67571;SDS011;54397;47.506;19.158;2022-07-06T04:41:15;5.57;;;3.42;;
67571;SDS011;54397;47.506;19.158;2022-07-06T04:44:37;4.45;;;2.92;;
67571;SDS011;54397;47.506;19.158;2022-07-06T04:47:58;3.70;;;3.03;;
67571;SDS011;54397;47.506;19.158;2022-07-06T04:51:22;4.25;;;3.00;;
67571;SDS011;54397;47.506;19.158;2022-07-06T04:54:46;3.63;;;2.60;;
67571;SDS011;54397;47.506;19.158;2022-07-06T04:58:08;4.28;;;3.17;;
67571;SDS011;54397;47.506;19.158;2022-07-06T05:01:32;3.15;;;2.85;;
67571;SDS011;54397;47.506;19.158;2022-07-06T05:04:56;4.65;;;2.83;;
67571;SDS011;54397;47.506;19.158;2022-07-06T05:08:18;4.63;;;2.78;;
67571;SDS011;54397;47.506;19.158;2022-07-06T05:11:46;3.88;;;2.83;;
67571;SDS011;54397;47.506;19.158;2022-07-06T05:15:12;5.25;;;3.35;;
67571;SDS011;54397;47.506;19.158;2022-07-06T05:18:36;4.78;;;2.53;;
67571;SDS011;54397;47.506;19.158;2022-07-06T05:21:58;4.90;;;3.30;;
67571;SDS011;54397;47.506;19.158;2022-07-06T05:25:22;3.40;;;3.10;;
67571;SDS011;54397;47.506;19.158;2022-07-06T05:28:43;3.03;;;2.65;;
67571;SDS011;54397;47.506;19.158;2022-07-06T05:32:05;3.90;;;2.80;;
67571;SDS011;54397;47.506;19.158;2022-07-06T05:35:27;7.32;;;2.60;;
67571;SDS011;54397;47.506;19.158;2022-07-06T05:39:11;4.97;;;2.65;;
67571;SDS011;54397;47.506;19.158;2022-07-06T05:42:34;4.05;;;2.50;;
67571;SDS011;54397;47.506;19.158;2022-07-06T05:45:55;4.38;;;2.70;;
67571;SDS011;54397;47.506;19.158;2022-07-06T05:49:17;3.75;;;2.47;;
67571;SDS011;54397;47.506;19.158;2022-07-06T05:53:00;2.65;;;2.45;;
67571;SDS011;54397;47.506;19.158;2022-07-06T05:56:33;3.97;;;2.58;;
67571;SDS011;54397;47.506;19.158;2022-07-06T05:59:54;3.60;;;2.47;;
67571;SDS011;54397;47.506;19.158;2022-07-06T06:03:18;3.95;;;2.30;;
67571;SDS011;54397;47.506;19.158;2022-07-06T06:06:40;2.40;;;2.20;;
67571;SDS011;54397;47.506;19.158;2022-07-06T06:10:05;3.58;;;2.45;;
67571;SDS011;54397;47.506;19.158;2022-07-06T06:13:31;6.25;;;2.63;;
67571;SDS011;54397;47.506;19.158;2022-07-06T06:16:55;3.85;;;2.25;;
67571;SDS011;54397;47.506;19.158;2022-07-06T06:20:16;2.80;;;2.60;;
67571;SDS011;54397;47.506;19.158;2022-07-06T06:23:41;4.03;;;2.33;;
67571;SDS011;54397;47.506;19.158;2022-07-06T06:27:03;5.97;;;2.50;;
67571;SDS011;54397;47.506;19.158;2022-07-06T06:30:27;4.15;;;2.45;;
67571;SDS011;54397;47.506;19.158;2022-07-06T06:33:51;4.70;;;2.83;;
67571;SDS011;54397;47.506;19.158;2022-07-06T06:37:14;4.75;;;3.00;;
67571;SDS011;54397;47.506;19.158;2022-07-06T06:40:43;3.92;;;2.97;;
67571;SDS011;54397;47.506;19.158;2022-07-06T06:44:09;7.57;;;2.70;;
67571;SDS011;54397;47.506;19.158;2022-07-06T06:47:33;4.15;;;2.50;;
67571;SDS011;54397;47.506;19.158;2022-07-06T06:50:57;3.55;;;3.08;;
67571;SDS011;54397;47.506;19.158;2022-07-06T06:54:21;4.70;;;2.90;;
67571;SDS011;54397;47.506;19.158;2022-07-06T06:57:43;3.85;;;3.03;;
67571;SDS011;54397;47.506;19.158;2022-07-06T07:01:05;5.60;;;3.05;;
67571;SDS011;54397;47.506;19.158;2022-07-06T07:04:31;4.65;;;3.03;;
67571;SDS011;54397;47.506;19.158;2022-07-06T07:07:53;5.65;;;2.90;;
67571;SDS011;54397;47.506;19.158;2022-07-06T07:11:25;3.47;;;2.83;;
67571;SDS011;54397;47.506;19.158;2022-07-06T07:14:49;4.15;;;2.72;;
67571;SDS011;54397;47.506;19.158;2022-07-06T07:18:13;3.58;;;2.97;;
67571;SDS011;54397;47.506;19.158;2022-07-06T07:21:36;4.32;;;2.97;;
67571;SDS011;54397;47.506;19.158;2022-07-06T07:24:58;4.18;;;2.88;;
67571;SDS011;54397;47.506;19.158;2022-07-06T07:28:25;3.95;;;2.78;;
67571;SDS011;54397;47.506;19.158;2022-07-06T07:31:50;4.93;;;2.80;;
67571;SDS011;54397;47.506;19.158;2022-07-06T07:35:12;7.35;;;3.05;;
67571;SDS011;54397;47.506;19.158;2022-07-06T07:38:36;2.88;;;2.50;;
67571;SDS011;54397;47.506;19.158;2022-07-06T07:41:57;3.17;;;2.33;;
67571;SDS011;54397;47.506;19.158;2022-07-06T07:45:22;2.88;;;2.60;;
67571;SDS011;54397;47.506;19.158;2022-07-06T07:48:45;3.58;;;2.50;;
67571;SDS011;54397;47.506;19.158;2022-07-06T07:52:07;2.83;;;2.63;;
67571;SDS011;54397;47.506;19.158;2022-07-06T07:55:32;3.03;;;2.28;;
67571;SDS011;54397;47.506;19.158;2022-07-06T07:59:02;4.80;;;2.25;;
67571;SDS011;54397;47.506;19.158;2022-07-06T08:02:23;2.55;;;2.35;;
67571;SDS011;54397;47.506;19.158;2022-07-06T08:05:47;2.30;;;2.10;;
67571;SDS011;54397;47.506;19.158;2022-07-06T08:09:09;4.03;;;2.08;;
67571;SDS011;54397;47.506;19.158;2022-07-06T08:12:31;3.17;;;2.03;;
67571;SDS011;54397;47.506;19.158;2022-07-06T08:15:55;5.70;;;2.13;;
67571;SDS011;54397;47.506;19.158;2022-07-06T08:19:17;2.20;;;2.00;;
67571;SDS011;54397;47.506;19.158;2022-07-06T08:22:42;2.80;;;1.83;;
67571;SDS011;54397;47.506;19.158;2022-07-06T08:26:04;1.77;;;1.67;;
67571;SDS011;54397;47.506;19.158;2022-07-06T08:29:33;2.75;;;1.98;;
67571;SDS011;54397;47.506;19.158;2022-07-06T08:32:55;1.90;;;1.80;;
67571;SDS011;54397;47.506;19.158;2022-07-06T08:36:32;3.67;;;2.10;;
67571;SDS011;54397;47.506;19.158;2022-07-06T08:39:54;2.33;;;1.95;;
67571;SDS011;54397;47.506;19.158;2022-07-06T08:43:15;2.03;;;1.80;;
67571;SDS011;54397;47.506;19.158;2022-07-06T08:46:45;2.45;;;1.80;;
67571;SDS011;54397;47.506;19.158;2022-07-06T08:50:07;2.33;;;2.00;;
67571;SDS011;54397;47.506;19.158;2022-07-06T08:53:34;5.30;;;1.75;;
67571;SDS011;54397;47.506;19.158;2022-07-06T08:56:56;2.17;;;1.80;;
67571;SDS011;54397;47.506;19.158;2022-07-06T09:00:18;2.67;;;1.70;;
67571;SDS011;54397;47.506;19.158;2022-07-06T09:03:43;2.10;;;1.90;;
67571;SDS011;54397;47.506;19.158;2022-07-06T09:07:12;2.97;;;1.90;;
67571;SDS011;54397;47.506;19.158;2022-07-06T09:10:54;4.10;;;1.73;;
67571;SDS011;54397;47.506;19.158;2022-07-06T09:14:16;3.08;;;1.95;;
67571;SDS011;54397;47.506;19.158;2022-07-06T09:17:41;3.70;;;1.90;;
67571;SDS011;54397;47.506;19.158;2022-07-06T09:21:04;2.13;;;1.95;;
67571;SDS011;54397;47.506;19.158;2022-07-06T09:24:33;2.13;;;1.80;;
67571;SDS011;54397;47.506;19.158;2022-07-06T09:28:03;2.53;;;2.30;;
67571;SDS011;54397;47.506;19.158;2022-07-06T09:31:29;4.93;;;2.22;;
67571;SDS011;54397;47.506;19.158;2022-07-06T09:34:55;1.90;;;1.80;;
67571;SDS011;54397;47.506;19.158;2022-07-06T09:38:19;2.13;;;1.93;;
67571;SDS011;54397;47.506;19.158;2022-07-06T09:41:41;3.53;;;2.13;;
67571;SDS011;54397;47.506;19.158;2022-07-06T09:45:03;2.53;;;2.30;;
67571;SDS011;54397;47.506;19.158;2022-07-06T09:48:29;2.97;;;2.10;;
67571;SDS011;54397;47.506;19.158;2022-07-06T09:51:59;3.10;;;2.20;;
67571;SDS011;54397;47.506;19.158;2022-07-06T09:58:55;2.50;;;2.30;;
67571;SDS011;54397;47.506;19.158;2022-07-06T10:02:24;2.88;;;2.35;;
67571;SDS011;54397;47.506;19.158;2022-07-06T10:05:55;4.38;;;2.40;;
67571;SDS011;54397;47.506;19.158;2022-07-06T10:09:23;4.90;;;2.38;;
67571;SDS011;54397;47.506;19.158;2022-07-06T10:12:46;3.92;;;2.40;;
67571;SDS011;54397;47.506;19.158;2022-07-06T10:16:10;2.60;;;2.40;;
67571;SDS011;54397;47.506;19.158;2022-07-06T10:19:32;3.10;;;2.60;;
67571;SDS011;54397;47.506;19.158;2022-07-06T10:22:58;2.92;;;2.63;;
67571;SDS011;54397;47.506;19.158;2022-07-06T10:26:21;2.60;;;2.40;;
67571;SDS011;54397;47.506;19.158;2022-07-06T10:29:45;2.83;;;2.30;;
67571;SDS011;54397;47.506;19.158;2022-07-06T10:33:06;3.03;;;2.72;;
67571;SDS011;54397;47.506;19.158;2022-07-06T10:36:28;9.60;;;2.70;;
67571;SDS011;54397;47.506;19.158;2022-07-06T10:39:50;2.80;;;2.45;;
67571;SDS011;54397;47.506;19.158;2022-07-06T10:43:35;3.65;;;2.60;;
67571;SDS011;54397;47.506;19.158;2022-07-06T10:46:58;2.72;;;2.42;;
67571;SDS011;54397;47.506;19.158;2022-07-06T10:50:22;3.13;;;2.60;;
67571;SDS011;54397;47.506;19.158;2022-07-06T10:53:44;3.40;;;2.50;;
67571;SDS011;54397;47.506;19.158;2022-07-06T10:57:09;2.83;;;2.42;;
67571;SDS011;54397;47.506;19.158;2022-07-06T11:01:10;5.10;;;2.33;;
67571;SDS011;54397;47.506;19.158;2022-07-06T11:04:30;2.95;;;2.58;;
67571;SDS011;54397;47.506;19.158;2022-07-06T11:07:53;3.72;;;2.60;;
67571;SDS011;54397;47.506;19.158;2022-07-06T11:14:48;8.27;;;2.88;;
67571;SDS011;54397;47.506;19.158;2022-07-06T11:18:16;3.03;;;2.50;;
67571;SDS011;54397;47.506;19.158;2022-07-06T11:21:54;4.10;;;2.35;;
67571;SDS011;54397;47.506;19.158;2022-07-06T11:25:19;2.78;;;2.25;;
67571;SDS011;54397;47.506;19.158;2022-07-06T11:28:43;2.55;;;2.35;;
67571;SDS011;54397;47.506;19.158;2022-07-06T11:32:09;3.33;;;2.42;;
67571;SDS011;54397;47.506;19.158;2022-07-06T11:35:32;3.10;;;2.40;;
67571;SDS011;54397;47.506;19.158;2022-07-06T11:38:59;3.60;;;2.25;;
67571;SDS011;54397;47.506;19.158;2022-07-06T11:42:23;3.33;;;2.33;;
67571;SDS011;54397;47.506;19.158;2022-07-06T11:45:44;3.05;;;2.30;;
67571;SDS011;54397;47.506;19.158;2022-07-06T11:49:09;3.78;;;2.35;;
67571;SDS011;54397;47.506;19.158;2022-07-06T11:52:33;2.60;;;2.40;;
67571;SDS011;54397;47.506;19.158;2022-07-06T11:55:54;5.65;;;2.70;;
67571;SDS011;54397;47.506;19.158;2022-07-06T11:59:16;2.55;;;2.13;;
67571;SDS011;54397;47.506;19.158;2022-07-06T12:03:00;5.22;;;2.63;;
67571;SDS011;54397;47.506;19.158;2022-07-06T12:06:25;4.45;;;2.53;;
67571;SDS011;54397;47.506;19.158;2022-07-06T12:09:50;4.18;;;2.80;;
67571;SDS011;54397;47.506;19.158;2022-07-06T12:13:14;4.28;;;2.70;;
67571;SDS011;54397;47.506;19.158;2022-07-06T12:16:38;5.45;;;3.00;;
67571;SDS011;54397;47.506;19.158;2022-07-06T12:20:02;3.67;;;2.55;;
67571;SDS011;54397;47.506;19.158;2022-07-06T12:23:37;2.88;;;2.50;;
67571;SDS011;54397;47.506;19.158;2022-07-06T12:27:09;3.70;;;2.53;;
67571;SDS011;54397;47.506;19.158;2022-07-06T12:30:33;2.40;;;2.20;;
67571;SDS011;54397;47.506;19.158;2022-07-06T12:34:17;3.80;;;2.50;;
67571;SDS011;54397;47.506;19.158;2022-07-06T12:37:42;3.17;;;2.60;;
67571;SDS011;54397;47.506;19.158;2022-07-06T12:41:28;5.97;;;2.92;;
67571;SDS011;54397;47.506;19.158;2022-07-06T12:44:56;2.70;;;2.50;;
67571;SDS011;54397;47.506;19.158;2022-07-06T12:48:22;5.18;;;2.55;;
67571;SDS011;54397;47.506;19.158;2022-07-06T12:51:52;5.78;;;2.60;;
67571;SDS011;54397;47.506;19.158;2022-07-06T12:55:18;4.55;;;2.70;;
67571;SDS011;54397;47.506;19.158;2022-07-06T12:58:57;3.72;;;2.63;;
67571;SDS011;54397;47.506;19.158;2022-07-06T13:02:33;2.67;;;2.40;;
67571;SDS011;54397;47.506;19.158;2022-07-06T13:06:26;4.25;;;2.80;;
67571;SDS011;54397;47.506;19.158;2022-07-06T13:09:49;2.80;;;2.33;;
67571;SDS011;54397;47.506;19.158;2022-07-06T13:13:11;2.78;;;2.30;;
67571;SDS011;54397;47.506;19.158;2022-07-06T13:16:35;2.38;;;2.17;;
67571;SDS011;54397;47.506;19.158;2022-07-06T13:19:59;2.63;;;2.38;;
67571;SDS011;54397;47.506;19.158;2022-07-06T13:23:24;3.85;;;2.22;;
67571;SDS011;54397;47.506;19.158;2022-07-06T13:26:46;4.93;;;2.38;;
67571;SDS011;54397;47.506;19.158;2022-07-06T13:30:08;5.85;;;2.40;;
67571;SDS011;54397;47.506;19.158;2022-07-06T13:33:33;4.50;;;2.17;;
67571;SDS011;54397;47.506;19.158;2022-07-06T13:36:55;4.50;;;2.17;;
67571;SDS011;54397;47.506;19.158;2022-07-06T13:40:17;2.22;;;2.03;;
67571;SDS011;54397;47.506;19.158;2022-07-06T13:43:38;3.47;;;2.28;;
67571;SDS011;54397;47.506;19.158;2022-07-06T13:47:02;3.95;;;2.35;;
67571;SDS011;54397;47.506;19.158;2022-07-06T13:50:26;10.13;;;2.30;;
67571;SDS011;54397;47.506;19.158;2022-07-06T13:53:53;3.15;;;2.22;;
67571;SDS011;54397;47.506;19.158;2022-07-06T13:57:15;2.75;;;2.10;;
67571;SDS011;54397;47.506;19.158;2022-07-06T14:00:38;2.58;;;2.38;;
67571;SDS011;54397;47.506;19.158;2022-07-06T14:04:00;2.53;;;2.33;;
67571;SDS011;54397;47.506;19.158;2022-07-06T14:07:25;3.97;;;2.40;;
67571;SDS011;54397;47.506;19.158;2022-07-06T14:10:49;3.40;;;2.20;;
67571;SDS011;54397;47.506;19.158;2022-07-06T14:14:12;4.57;;;2.40;;
67571;SDS011;54397;47.506;19.158;2022-07-06T14:17:36;3.15;;;2.22;;
67571;SDS011;54397;47.506;19.158;2022-07-06T14:21:00;2.97;;;2.08;;
67571;SDS011;54397;47.506;19.158;2022-07-06T14:24:23;2.75;;;1.70;;
67571;SDS011;54397;47.506;19.158;2022-07-06T14:27:52;2.05;;;1.83;;
67571;SDS011;54397;47.506;19.158;2022-07-06T14:31:16;2.13;;;1.80;;
67571;SDS011;54397;47.506;19.158;2022-07-06T14:34:42;7.47;;;1.83;;
67571;SDS011;54397;47.506;19.158;2022-07-06T14:38:04;5.72;;;2.22;;
67571;SDS011;54397;47.506;19.158;2022-07-06T14:41:26;3.33;;;1.90;;
67571;SDS011;54397;47.506;19.158;2022-07-06T14:44:48;2.88;;;2.00;;
67571;SDS011;54397;47.506;19.158;2022-07-06T14:48:10;4.82;;;2.03;;
67571;SDS011;54397;47.506;19.158;2022-07-06T14:51:32;2.30;;;2.10;;
67571;SDS011;54397;47.506;19.158;2022-07-06T14:54:59;3.05;;;2.13;;
67571;SDS011;54397;47.506;19.158;2022-07-06T14:58:23;10.40;;;2.30;;
67571;SDS011;54397;47.506;19.158;2022-07-06T15:01:44;4.40;;;2.00;;
67571;SDS011;54397;47.506;19.158;2022-07-06T15:05:06;2.97;;;1.90;;
67571;SDS011;54397;47.506;19.158;2022-07-06T15:08:28;4.05;;;1.80;;
67571;SDS011;54397;47.506;19.158;2022-07-06T15:11:50;2.42;;;1.55;;
67571;SDS011;54397;47.506;19.158;2022-07-06T15:15:14;1.58;;;1.40;;
67571;SDS011;54397;47.506;19.158;2022-07-06T15:18:58;3.65;;;1.33;;
67571;SDS011;54397;47.506;19.158;2022-07-06T15:22:22;4.80;;;1.30;;
67571;SDS011;54397;47.506;19.158;2022-07-06T15:25:44;2.55;;;1.23;;
67571;SDS011;54397;47.506;19.158;2022-07-06T15:29:15;2.83;;;1.50;;
67571;SDS011;54397;47.506;19.158;2022-07-06T15:32:47;3.13;;;1.25;;
67571;SDS011;54397;47.506;19.158;2022-07-06T15:36:11;2.22;;;1.40;;
67571;SDS011;54397;47.506;19.158;2022-07-06T15:39:35;3.08;;;1.20;;
67571;SDS011;54397;47.506;19.158;2022-07-06T15:42:59;1.40;;;1.30;;
67571;SDS011;54397;47.506;19.158;2022-07-06T15:46:21;1.42;;;1.25;;
67571;SDS011;54397;47.506;19.158;2022-07-06T15:49:47;1.20;;;1.10;;
67571;SDS011;54397;47.506;19.158;2022-07-06T15:53:16;2.10;;;1.23;;
67571;SDS011;54397;47.506;19.158;2022-07-06T15:56:41;1.60;;;1.08;;
67571;SDS011;54397;47.506;19.158;2022-07-06T16:00:08;3.30;;;1.40;;
67571;SDS011;54397;47.506;19.158;2022-07-06T16:03:30;1.88;;;1.33;;
67571;SDS011;54397;47.506;19.158;2022-07-06T16:06:54;3.08;;;1.20;;
67571;SDS011;54397;47.506;19.158;2022-07-06T16:10:38;2.95;;;2.20;;
67571;SDS011;54397;47.506;19.158;2022-07-06T16:14:03;1.77;;;1.63;;
67571;SDS011;54397;47.506;19.158;2022-07-06T16:17:24;1.38;;;1.20;;
67571;SDS011;54397;47.506;19.158;2022-07-06T16:20:46;2.05;;;1.08;;
67571;SDS011;54397;47.506;19.158;2022-07-06T16:24:07;4.00;;;1.20;;
67571;SDS011;54397;47.506;19.158;2022-07-06T16:27:29;2.13;;;1.20;;
67571;SDS011;54397;47.506;19.158;2022-07-06T16:30:51;1.75;;;1.20;;
67571;SDS011;54397;47.506;19.158;2022-07-06T16:34:13;1.73;;;1.25;;
67571;SDS011;54397;47.506;19.158;2022-07-06T16:37:34;1.48;;;1.38;;
67571;SDS011;54397;47.506;19.158;2022-07-06T16:40:56;1.65;;;1.30;;
67571;SDS011;54397;47.506;19.158;2022-07-06T16:44:18;3.20;;;1.30;;
67571;SDS011;54397;47.506;19.158;2022-07-06T16:47:42;2.38;;;1.25;;
67571;SDS011;54397;47.506;19.158;2022-07-06T16:51:03;1.30;;;1.20;;
67571;SDS011;54397;47.506;19.158;2022-07-06T16:54:27;2.35;;;1.50;;
67571;SDS011;54397;47.506;19.158;2022-07-06T16:57:51;2.08;;;1.40;;
67571;SDS011;54397;47.506;19.158;2022-07-06T17:01:15;1.50;;;1.40;;
67571;SDS011;54397;47.506;19.158;2022-07-06T17:04:45;1.87;;;1.60;;
67571;SDS011;54397;47.506;19.158;2022-07-06T17:08:07;2.15;;;1.40;;
67571;SDS011;54397;47.506;19.158;2022-07-06T17:11:28;1.40;;;1.30;;
67571;SDS011;54397;47.506;19.158;2022-07-06T17:14:50;1.48;;;1.38;;
67571;SDS011;54397;47.506;19.158;2022-07-06T17:18:12;2.25;;;1.50;;
67571;SDS011;54397;47.506;19.158;2022-07-06T17:21:36;2.85;;;1.55;;
67571;SDS011;54397;47.506;19.158;2022-07-06T17:24:58;2.22;;;1.25;;
67571;SDS011;54397;47.506;19.158;2022-07-06T17:28:22;2.50;;;1.45;;
67571;SDS011;54397;47.506;19.158;2022-07-06T17:31:44;2.53;;;1.38;;
67571;SDS011;54397;47.506;19.158;2022-07-06T17:35:08;1.48;;;1.38;;
67571;SDS011;54397;47.506;19.158;2022-07-06T17:38:30;1.60;;;1.50;;
67571;SDS011;54397;47.506;19.158;2022-07-06T17:41:52;3.28;;;1.27;;
67571;SDS011;54397;47.506;19.158;2022-07-06T17:45:13;1.20;;;1.20;;
67571;SDS011;54397;47.506;19.158;2022-07-06T17:48:37;1.75;;;1.20;;
67571;SDS011;54397;47.506;19.158;2022-07-06T17:51:58;1.33;;;1.20;;
67571;SDS011;54397;47.506;19.158;2022-07-06T17:55:20;6.72;;;1.63;;
67571;SDS011;54397;47.506;19.158;2022-07-06T17:58:42;2.35;;;1.20;;
67571;SDS011;54397;47.506;19.158;2022-07-06T18:02:06;1.73;;;1.02;;
67571;SDS011;54397;47.506;19.158;2022-07-06T18:05:31;1.38;;;0.90;;
67571;SDS011;54397;47.506;19.158;2022-07-06T18:08:53;3.22;;;1.10;;
67571;SDS011;54397;47.506;19.158;2022-07-06T18:12:18;2.95;;;1.40;;
67571;SDS011;54397;47.506;19.158;2022-07-06T18:15:39;3.17;;;1.92;;
67571;SDS011;54397;47.506;19.158;2022-07-06T18:19:01;2.25;;;1.48;;
67571;SDS011;54397;47.506;19.158;2022-07-06T18:22:27;1.90;;;0.98;;
67571;SDS011;54397;47.506;19.158;2022-07-06T18:25:52;2.63;;;1.25;;
67571;SDS011;54397;47.506;19.158;2022-07-06T18:29:17;3.63;;;1.40;;
67571;SDS011;54397;47.506;19.158;2022-07-06T18:32:39;2.28;;;1.30;;
67571;SDS011;54397;47.506;19.158;2022-07-06T18:36:01;4.95;;;4.15;;
67571;SDS011;54397;47.506;19.158;2022-07-06T18:39:25;3.58;;;3.22;;
67571;SDS011;54397;47.506;19.158;2022-07-06T18:42:47;2.28;;;1.23;;
67571;SDS011;54397;47.506;19.158;2022-07-06T18:46:11;1.30;;;1.20;;
67571;SDS011;54397;47.506;19.158;2022-07-06T18:49:32;1.23;;;1.10;;
67571;SDS011;54397;47.506;19.158;2022-07-06T18:52:54;1.90;;;1.17;;
67571;SDS011;54397;47.506;19.158;2022-07-06T18:56:16;3.15;;;1.20;;
67571;SDS011;54397;47.506;19.158;2022-07-06T18:59:40;5.50;;;1.10;;
67571;SDS011;54397;47.506;19.158;2022-07-06T19:03:04;1.40;;;1.30;;
67571;SDS011;54397;47.506;19.158;2022-07-06T19:06:25;2.42;;;1.50;;
67571;SDS011;54397;47.506;19.158;2022-07-06T19:09:49;3.72;;;1.13;;
67571;SDS011;54397;47.506;19.158;2022-07-06T19:13:11;1.38;;;1.20;;
67571;SDS011;54397;47.506;19.158;2022-07-06T19:16:35;4.25;;;1.40;;
67571;SDS011;54397;47.506;19.158;2022-07-06T19:19:59;6.82;;;1.63;;
67571;SDS011;54397;47.506;19.158;2022-07-06T19:23:23;1.35;;;1.20;;
67571;SDS011;54397;47.506;19.158;2022-07-06T19:26:45;2.20;;;1.20;;
67571;SDS011;54397;47.506;19.158;2022-07-06T19:30:07;3.30;;;1.30;;
67571;SDS011;54397;47.506;19.158;2022-07-06T19:33:29;3.92;;;1.33;;
67571;SDS011;54397;47.506;19.158;2022-07-06T19:36:51;5.85;;;3.83;;
67571;SDS011;54397;47.506;19.158;2022-07-06T19:40:13;2.17;;;1.90;;
67571;SDS011;54397;47.506;19.158;2022-07-06T19:43:38;2.05;;;1.50;;
67571;SDS011;54397;47.506;19.158;2022-07-06T19:47:02;2.45;;;1.35;;
67571;SDS011;54397;47.506;19.158;2022-07-06T19:50:27;1.65;;;1.30;;
67571;SDS011;54397;47.506;19.158;2022-07-06T19:53:51;3.15;;;1.35;;
67571;SDS011;54397;47.506;19.158;2022-07-06T19:57:13;1.90;;;1.40;;
67571;SDS011;54397;47.506;19.158;2022-07-06T20:00:35;2.72;;;1.58;;
67571;SDS011;54397;47.506;19.158;2022-07-06T20:03:59;2.83;;;1.60;;
67571;SDS011;54397;47.506;19.158;2022-07-06T20:07:20;1.58;;;1.45;;
67571;SDS011;54397;47.506;19.158;2022-07-06T20:10:42;1.70;;;1.60;;
67571;SDS011;54397;47.506;19.158;2022-07-06T20:14:04;2.10;;;1.55;;
67571;SDS011;54397;47.506;19.158;2022-07-06T20:17:26;3.15;;;1.58;;
67571;SDS011;54397;47.506;19.158;2022-07-06T20:20:50;6.65;;;2.03;;